sensor_id;sensor_type;location;lat;lon;timestamp;P1;durP1;ratioP1;P2;durP2;ratioP2
3941;SDS011;1985;48.592;8.850;2023-06-22T00:01:57;16.70;;;8.35;;
3941;SDS011;1985;48.592;8.850;2023-06-22T00:04:23;17.67;;;7.63;;
3941;SDS011;1985;48.592;8.850;2023-06-22T00:06:50;15.38;;;6.95;;
3941;SDS011;1985;48.592;8.850;2023-06-22T00:09:16;17.23;;;7.20;;
3941;SDS011;1985;48.592;8.850;2023-06-22T00:11:41;14.80;;;6.80;;
3941;SDS011;1985;48.592;8.850;2023-06-22T00:14:07;17.23;;;7.50;;
3941;SDS011;1985;48.592;8.850;2023-06-22T00:16:33;15.85;;;6.90;;
3941;SDS011;1985;48.592;8.850;2023-06-22T00:18:59;16.73;;;6.40;;
3941;SDS011;1985;48.592;8.850;2023-06-22T00:21:28;16.80;;;7.65;;
3941;SDS011;1985;48.592;8.850;2023-06-22T00:23:54;14.27;;;6.85;;
3941;SDS011;1985;48.592;8.850;2023-06-22T00:26:20;16.13;;;7.07;;
3941;SDS011;1985;48.592;8.850;2023-06-22T00:28:46;16.90;;;6.40;;
3941;SDS011;1985;48.592;8.850;2023-06-22T00:31:12;15.30;;;7.20;;
3941;SDS011;1985;48.592;8.850;2023-06-22T00:33:38;14.10;;;6.80;;
3941;SDS011;1985;48.592;8.850;2023-06-22T00:36:04;17.67;;;7.43;;
3941;SDS011;1985;48.592;8.850;2023-06-22T00:38:30;14.68;;;6.47;;
3941;SDS011;1985;48.592;8.850;2023-06-22T00:40:56;14.17;;;6.10;;
3941;SDS011;1985;48.592;8.850;2023-06-22T00:43:21;16.77;;;7.10;;
3941;SDS011;1985;48.592;8.850;2023-06-22T00:45:47;19.25;;;7.10;;
3941;SDS011;1985;48.592;8.850;2023-06-22T00:48:13;16.23;;;7.32;;
3941;SDS011;1985;48.592;8.850;2023-06-22T00:50:39;15.00;;;7.28;;
3941;SDS011;1985;48.592;8.850;2023-06-22T00:53:06;15.50;;;6.78;;
3941;SDS011;1985;48.592;8.850;2023-06-22T00:55:45;15.20;;;7.03;;
3941;SDS011;1985;48.592;8.850;2023-06-22T00:58:16;18.02;;;7.00;;
3941;SDS011;1985;48.592;8.850;2023-06-22T01:00:46;14.80;;;6.95;;
3941;SDS011;1985;48.592;8.850;2023-06-22T01:03:12;13.95;;;6.68;;
3941;SDS011;1985;48.592;8.850;2023-06-22T01:05:38;16.53;;;7.33;;
3941;SDS011;1985;48.592;8.850;2023-06-22T01:13:36;15.98;;;7.70;;
3941;SDS011;1985;48.592;8.850;2023-06-22T01:16:25;17.07;;;7.33;;
3941;SDS011;1985;48.592;8.850;2023-06-22T01:18:55;15.93;;;7.63;;
3941;SDS011;1985;48.592;8.850;2023-06-22T01:21:22;17.47;;;7.43;;
3941;SDS011;1985;48.592;8.850;2023-06-22T01:26:38;15.27;;;7.25;;
3941;SDS011;1985;48.592;8.850;2023-06-22T01:29:24;17.13;;;7.50;;
3941;SDS011;1985;48.592;8.850;2023-06-22T01:31:51;14.95;;;6.80;;
3941;SDS011;1985;48.592;8.850;2023-06-22T01:34:19;16.15;;;7.50;;
3941;SDS011;1985;48.592;8.850;2023-06-22T01:36:46;16.98;;;8.23;;
3941;SDS011;1985;48.592;8.850;2023-06-22T01:39:12;15.45;;;7.55;;
3941;SDS011;1985;48.592;8.850;2023-06-22T01:41:39;17.05;;;7.50;;
3941;SDS011;1985;48.592;8.850;2023-06-22T01:44:07;17.55;;;7.82;;
3941;SDS011;1985;48.592;8.850;2023-06-22T01:46:34;16.73;;;7.85;;
3941;SDS011;1985;48.592;8.850;2023-06-22T01:49:02;19.55;;;7.82;;
3941;SDS011;1985;48.592;8.850;2023-06-22T01:51:28;17.63;;;8.55;;
3941;SDS011;1985;48.592;8.850;2023-06-22T01:53:55;14.50;;;6.67;;
3941;SDS011;1985;48.592;8.850;2023-06-22T01:56:20;19.37;;;8.70;;
3941;SDS011;1985;48.592;8.850;2023-06-22T01:58:58;19.35;;;7.82;;
3941;SDS011;1985;48.592;8.850;2023-06-22T02:01:31;17.50;;;7.93;;
3941;SDS011;1985;48.592;8.850;2023-06-22T02:04:06;16.17;;;7.00;;
3941;SDS011;1985;48.592;8.850;2023-06-22T02:06:39;17.50;;;7.70;;
3941;SDS011;1985;48.592;8.850;2023-06-22T02:09:09;16.88;;;7.78;;
3941;SDS011;1985;48.592;8.850;2023-06-22T02:11:40;15.90;;;6.97;;
3941;SDS011;1985;48.592;8.850;2023-06-22T02:14:08;18.08;;;7.75;;
3941;SDS011;1985;48.592;8.850;2023-06-22T02:16:33;20.90;;;7.40;;
3941;SDS011;1985;48.592;8.850;2023-06-22T02:19:01;16.27;;;7.90;;
3941;SDS011;1985;48.592;8.850;2023-06-22T02:21:31;20.43;;;9.10;;
3941;SDS011;1985;48.592;8.850;2023-06-22T02:23:57;19.30;;;10.00;;
3941;SDS011;1985;48.592;8.850;2023-06-22T02:26:23;17.02;;;8.30;;
3941;SDS011;1985;48.592;8.850;2023-06-22T02:28:50;18.65;;;8.48;;
3941;SDS011;1985;48.592;8.850;2023-06-22T02:31:16;18.70;;;8.60;;
3941;SDS011;1985;48.592;8.850;2023-06-22T02:33:41;15.83;;;7.07;;
3941;SDS011;1985;48.592;8.850;2023-06-22T02:36:08;17.02;;;8.00;;
3941;SDS011;1985;48.592;8.850;2023-06-22T02:38:34;15.60;;;6.82;;
3941;SDS011;1985;48.592;8.850;2023-06-22T02:41:01;18.73;;;8.10;;
3941;SDS011;1985;48.592;8.850;2023-06-22T02:43:27;17.15;;;7.88;;
3941;SDS011;1985;48.592;8.850;2023-06-22T02:45:53;18.30;;;7.37;;
3941;SDS011;1985;48.592;8.850;2023-06-22T02:48:18;15.95;;;6.30;;
3941;SDS011;1985;48.592;8.850;2023-06-22T02:50:44;15.18;;;7.10;;
3941;SDS011;1985;48.592;8.850;2023-06-22T02:53:10;16.75;;;7.30;;
3941;SDS011;1985;48.592;8.850;2023-06-22T02:55:35;18.47;;;7.50;;
3941;SDS011;1985;48.592;8.850;2023-06-22T02:58:01;18.20;;;7.60;;
3941;SDS011;1985;48.592;8.850;2023-06-22T03:00:30;22.17;;;7.80;;
3941;SDS011;1985;48.592;8.850;2023-06-22T03:02:56;21.52;;;8.48;;
3941;SDS011;1985;48.592;8.850;2023-06-22T03:05:22;18.73;;;7.35;;
3941;SDS011;1985;48.592;8.850;2023-06-22T03:07:49;19.45;;;7.35;;
3941;SDS011;1985;48.592;8.850;2023-06-22T03:10:15;17.33;;;7.80;;
3941;SDS011;1985;48.592;8.850;2023-06-22T03:12:42;15.45;;;6.88;;
3941;SDS011;1985;48.592;8.850;2023-06-22T03:15:09;16.53;;;7.43;;
3941;SDS011;1985;48.592;8.850;2023-06-22T03:17:37;17.73;;;7.97;;
3941;SDS011;1985;48.592;8.850;2023-06-22T03:20:07;17.10;;;8.70;;
3941;SDS011;1985;48.592;8.850;2023-06-22T03:22:34;22.05;;;8.93;;
3941;SDS011;1985;48.592;8.850;2023-06-22T03:25:01;18.60;;;8.35;;
3941;SDS011;1985;48.592;8.850;2023-06-22T03:27:26;18.63;;;7.85;;
3941;SDS011;1985;48.592;8.850;2023-06-22T03:29:52;16.60;;;7.40;;
3941;SDS011;1985;48.592;8.850;2023-06-22T03:32:18;16.05;;;8.10;;
3941;SDS011;1985;48.592;8.850;2023-06-22T03:34:43;17.88;;;7.90;;
3941;SDS011;1985;48.592;8.850;2023-06-22T03:37:12;16.35;;;6.97;;
3941;SDS011;1985;48.592;8.850;2023-06-22T03:39:39;14.97;;;6.97;;
3941;SDS011;1985;48.592;8.850;2023-06-22T03:42:04;15.63;;;7.00;;
3941;SDS011;1985;48.592;8.850;2023-06-22T03:44:30;17.40;;;7.47;;
3941;SDS011;1985;48.592;8.850;2023-06-22T03:46:56;18.33;;;6.73;;
3941;SDS011;1985;48.592;8.850;2023-06-22T03:49:22;15.80;;;7.73;;
3941;SDS011;1985;48.592;8.850;2023-06-22T03:51:47;20.13;;;7.70;;
3941;SDS011;1985;48.592;8.850;2023-06-22T03:54:13;15.43;;;6.93;;
3941;SDS011;1985;48.592;8.850;2023-06-22T03:56:38;16.58;;;7.65;;
3941;SDS011;1985;48.592;8.850;2023-06-22T03:59:04;16.50;;;6.30;;
3941;SDS011;1985;48.592;8.850;2023-06-22T04:01:30;18.13;;;8.02;;
3941;SDS011;1985;48.592;8.850;2023-06-22T04:03:55;16.40;;;7.68;;
3941;SDS011;1985;48.592;8.850;2023-06-22T04:06:21;19.52;;;7.38;;
3941;SDS011;1985;48.592;8.850;2023-06-22T04:08:47;16.83;;;7.97;;
3941;SDS011;1985;48.592;8.850;2023-06-22T04:11:15;15.33;;;7.13;;
3941;SDS011;1985;48.592;8.850;2023-06-22T04:13:42;16.60;;;6.80;;
3941;SDS011;1985;48.592;8.850;2023-06-22T04:16:08;18.75;;;7.72;;
3941;SDS011;1985;48.592;8.850;2023-06-22T04:18:33;17.65;;;7.80;;
3941;SDS011;1985;48.592;8.850;2023-06-22T04:20:59;19.02;;;7.32;;
3941;SDS011;1985;48.592;8.850;2023-06-22T04:23:24;16.05;;;6.70;;
3941;SDS011;1985;48.592;8.850;2023-06-22T04:25:50;16.50;;;6.80;;
3941;SDS011;1985;48.592;8.850;2023-06-22T04:28:16;15.80;;;7.10;;
3941;SDS011;1985;48.592;8.850;2023-06-22T04:30:42;18.00;;;8.25;;
3941;SDS011;1985;48.592;8.850;2023-06-22T04:33:14;18.00;;;6.73;;
3941;SDS011;1985;48.592;8.850;2023-06-22T04:35:40;14.63;;;6.20;;
3941;SDS011;1985;48.592;8.850;2023-06-22T04:38:06;14.30;;;6.57;;
3941;SDS011;1985;48.592;8.850;2023-06-22T04:40:32;15.65;;;6.95;;
3941;SDS011;1985;48.592;8.850;2023-06-22T04:42:58;16.80;;;7.03;;
3941;SDS011;1985;48.592;8.850;2023-06-22T04:45:27;14.40;;;7.07;;
3941;SDS011;1985;48.592;8.850;2023-06-22T04:47:54;18.30;;;7.90;;
3941;SDS011;1985;48.592;8.850;2023-06-22T04:50:19;14.97;;;6.70;;
3941;SDS011;1985;48.592;8.850;2023-06-22T04:52:46;19.33;;;6.60;;
3941;SDS011;1985;48.592;8.850;2023-06-22T04:55:12;15.27;;;6.90;;
3941;SDS011;1985;48.592;8.850;2023-06-22T04:57:43;14.40;;;6.85;;
3941;SDS011;1985;48.592;8.850;2023-06-22T05:00:14;14.68;;;6.68;;
3941;SDS011;1985;48.592;8.850;2023-06-22T05:02:42;16.38;;;6.75;;
3941;SDS011;1985;48.592;8.850;2023-06-22T05:05:10;16.98;;;7.45;;
3941;SDS011;1985;48.592;8.850;2023-06-22T05:07:38;16.73;;;6.53;;
3941;SDS011;1985;48.592;8.850;2023-06-22T05:10:07;16.90;;;7.70;;
3941;SDS011;1985;48.592;8.850;2023-06-22T05:12:34;15.15;;;6.47;;
3941;SDS011;1985;48.592;8.850;2023-06-22T05:15:00;16.33;;;7.60;;
3941;SDS011;1985;48.592;8.850;2023-06-22T05:17:26;16.67;;;6.88;;
3941;SDS011;1985;48.592;8.850;2023-06-22T05:19:52;16.83;;;6.60;;
3941;SDS011;1985;48.592;8.850;2023-06-22T05:22:18;19.60;;;6.80;;
3941;SDS011;1985;48.592;8.850;2023-06-22T05:24:44;16.17;;;7.40;;
3941;SDS011;1985;48.592;8.850;2023-06-22T05:27:10;17.25;;;6.25;;
3941;SDS011;1985;48.592;8.850;2023-06-22T05:29:36;14.83;;;5.70;;
3941;SDS011;1985;48.592;8.850;2023-06-22T05:32:02;15.13;;;6.30;;
3941;SDS011;1985;48.592;8.850;2023-06-22T05:34:28;17.30;;;6.40;;
3941;SDS011;1985;48.592;8.850;2023-06-22T05:36:54;13.48;;;5.97;;
3941;SDS011;1985;48.592;8.850;2023-06-22T05:39:20;16.63;;;6.90;;
3941;SDS011;1985;48.592;8.850;2023-06-22T05:41:46;14.65;;;5.90;;
3941;SDS011;1985;48.592;8.850;2023-06-22T05:44:11;15.80;;;7.17;;
3941;SDS011;1985;48.592;8.850;2023-06-22T05:46:40;18.70;;;7.40;;
3941;SDS011;1985;48.592;8.850;2023-06-22T05:49:12;14.52;;;6.30;;
3941;SDS011;1985;48.592;8.850;2023-06-22T05:51:38;14.95;;;6.05;;
3941;SDS011;1985;48.592;8.850;2023-06-22T05:54:04;15.68;;;6.38;;
3941;SDS011;1985;48.592;8.850;2023-06-22T05:56:30;13.60;;;5.40;;
3941;SDS011;1985;48.592;8.850;2023-06-22T05:58:55;16.85;;;6.50;;
3941;SDS011;1985;48.592;8.850;2023-06-22T06:01:21;15.73;;;6.63;;
3941;SDS011;1985;48.592;8.850;2023-06-22T06:03:47;14.67;;;6.37;;
3941;SDS011;1985;48.592;8.850;2023-06-22T06:06:14;16.90;;;6.82;;
3941;SDS011;1985;48.592;8.850;2023-06-22T06:08:40;16.13;;;5.47;;
3941;SDS011;1985;48.592;8.850;2023-06-22T06:11:06;17.30;;;6.20;;
3941;SDS011;1985;48.592;8.850;2023-06-22T06:13:32;14.70;;;5.53;;
3941;SDS011;1985;48.592;8.850;2023-06-22T06:15:58;14.60;;;5.80;;
3941;SDS011;1985;48.592;8.850;2023-06-22T06:18:24;15.18;;;6.45;;
3941;SDS011;1985;48.592;8.850;2023-06-22T06:20:50;16.03;;;6.50;;
3941;SDS011;1985;48.592;8.850;2023-06-22T06:23:15;15.03;;;5.27;;
3941;SDS011;1985;48.592;8.850;2023-06-22T06:25:41;17.27;;;5.73;;
3941;SDS011;1985;48.592;8.850;2023-06-22T06:28:07;15.63;;;5.77;;
3941;SDS011;1985;48.592;8.850;2023-06-22T06:30:32;12.90;;;5.17;;
3941;SDS011;1985;48.592;8.850;2023-06-22T06:32:58;14.90;;;5.70;;
3941;SDS011;1985;48.592;8.850;2023-06-22T06:35:23;14.17;;;5.80;;
3941;SDS011;1985;48.592;8.850;2023-06-22T06:37:49;12.83;;;5.00;;
3941;SDS011;1985;48.592;8.850;2023-06-22T06:40:16;11.82;;;4.72;;
3941;SDS011;1985;48.592;8.850;2023-06-22T06:42:44;12.93;;;4.93;;
3941;SDS011;1985;48.592;8.850;2023-06-22T06:45:20;15.93;;;6.00;;
3941;SDS011;1985;48.592;8.850;2023-06-22T06:47:47;12.40;;;5.53;;
3941;SDS011;1985;48.592;8.850;2023-06-22T06:50:14;13.35;;;5.32;;
3941;SDS011;1985;48.592;8.850;2023-06-22T06:52:40;13.50;;;5.97;;
3941;SDS011;1985;48.592;8.850;2023-06-22T06:55:06;14.30;;;5.40;;
3941;SDS011;1985;48.592;8.850;2023-06-22T06:57:36;13.40;;;5.40;;
3941;SDS011;1985;48.592;8.850;2023-06-22T07:00:03;14.38;;;5.70;;
3941;SDS011;1985;48.592;8.850;2023-06-22T07:02:34;18.27;;;5.80;;
3941;SDS011;1985;48.592;8.850;2023-06-22T07:05:00;17.23;;;5.73;;
3941;SDS011;1985;48.592;8.850;2023-06-22T07:07:28;14.43;;;5.88;;
3941;SDS011;1985;48.592;8.850;2023-06-22T07:09:54;13.97;;;5.37;;
3941;SDS011;1985;48.592;8.850;2023-06-22T07:12:19;18.13;;;5.70;;
3941;SDS011;1985;48.592;8.850;2023-06-22T07:14:46;15.43;;;5.30;;
3941;SDS011;1985;48.592;8.850;2023-06-22T07:17:11;13.48;;;5.63;;
3941;SDS011;1985;48.592;8.850;2023-06-22T07:19:37;14.38;;;5.32;;
3941;SDS011;1985;48.592;8.850;2023-06-22T07:22:03;15.20;;;5.47;;
3941;SDS011;1985;48.592;8.850;2023-06-22T07:24:29;12.60;;;4.90;;
3941;SDS011;1985;48.592;8.850;2023-06-22T07:26:55;14.47;;;6.20;;
3941;SDS011;1985;48.592;8.850;2023-06-22T07:29:22;14.05;;;5.70;;
3941;SDS011;1985;48.592;8.850;2023-06-22T07:31:49;14.90;;;5.00;;
3941;SDS011;1985;48.592;8.850;2023-06-22T07:34:16;14.32;;;5.50;;
3941;SDS011;1985;48.592;8.850;2023-06-22T07:36:42;12.77;;;5.07;;
3941;SDS011;1985;48.592;8.850;2023-06-22T07:39:09;14.52;;;4.40;;
3941;SDS011;1985;48.592;8.850;2023-06-22T07:41:34;18.67;;;4.95;;
3941;SDS011;1985;48.592;8.850;2023-06-22T07:44:00;15.43;;;4.90;;
3941;SDS011;1985;48.592;8.850;2023-06-22T07:46:26;14.20;;;5.00;;
3941;SDS011;1985;48.592;8.850;2023-06-22T07:48:55;18.00;;;5.30;;
3941;SDS011;1985;48.592;8.850;2023-06-22T07:51:21;17.25;;;6.18;;
3941;SDS011;1985;48.592;8.850;2023-06-22T07:53:47;14.90;;;5.18;;
3941;SDS011;1985;48.592;8.850;2023-06-22T07:56:12;15.70;;;5.30;;
3941;SDS011;1985;48.592;8.850;2023-06-22T07:58:39;13.48;;;5.10;;
3941;SDS011;1985;48.592;8.850;2023-06-22T08:01:04;14.35;;;5.10;;
3941;SDS011;1985;48.592;8.850;2023-06-22T08:03:31;15.00;;;5.15;;
3941;SDS011;1985;48.592;8.850;2023-06-22T08:05:57;20.95;;;5.43;;
3941;SDS011;1985;48.592;8.850;2023-06-22T08:08:23;13.48;;;5.03;;
3941;SDS011;1985;48.592;8.850;2023-06-22T08:10:48;13.95;;;4.97;;
3941;SDS011;1985;48.592;8.850;2023-06-22T08:13:14;14.02;;;4.30;;
3941;SDS011;1985;48.592;8.850;2023-06-22T08:15:40;15.23;;;5.25;;
3941;SDS011;1985;48.592;8.850;2023-06-22T08:18:06;16.55;;;5.32;;
3941;SDS011;1985;48.592;8.850;2023-06-22T08:20:31;13.65;;;4.70;;
3941;SDS011;1985;48.592;8.850;2023-06-22T08:22:57;14.90;;;5.20;;
3941;SDS011;1985;48.592;8.850;2023-06-22T08:25:30;12.37;;;4.60;;
3941;SDS011;1985;48.592;8.850;2023-06-22T08:27:55;15.37;;;5.07;;
3941;SDS011;1985;48.592;8.850;2023-06-22T08:30:21;13.67;;;4.97;;
3941;SDS011;1985;48.592;8.850;2023-06-22T08:32:46;12.87;;;5.40;;
3941;SDS011;1985;48.592;8.850;2023-06-22T08:35:12;20.20;;;5.53;;
3941;SDS011;1985;48.592;8.850;2023-06-22T08:37:39;14.73;;;4.88;;
3941;SDS011;1985;48.592;8.850;2023-06-22T08:40:06;15.30;;;5.10;;
3941;SDS011;1985;48.592;8.850;2023-06-22T08:42:34;16.65;;;4.47;;
3941;SDS011;1985;48.592;8.850;2023-06-22T08:44:59;13.77;;;5.00;;
3941;SDS011;1985;48.592;8.850;2023-06-22T08:47:27;16.87;;;4.93;;
3941;SDS011;1985;48.592;8.850;2023-06-22T08:49:53;16.17;;;5.00;;
3941;SDS011;1985;48.592;8.850;2023-06-22T08:52:18;19.10;;;5.00;;
3941;SDS011;1985;48.592;8.850;2023-06-22T08:54:45;15.77;;;5.15;;
3941;SDS011;1985;48.592;8.850;2023-06-22T08:57:11;13.93;;;4.97;;
3941;SDS011;1985;48.592;8.850;2023-06-22T08:59:36;14.20;;;4.50;;
3941;SDS011;1985;48.592;8.850;2023-06-22T09:02:02;21.63;;;4.60;;
3941;SDS011;1985;48.592;8.850;2023-06-22T09:04:28;15.93;;;5.00;;
3941;SDS011;1985;48.592;8.850;2023-06-22T09:06:53;14.40;;;4.80;;
3941;SDS011;1985;48.592;8.850;2023-06-22T09:09:20;20.13;;;5.63;;
3941;SDS011;1985;48.592;8.850;2023-06-22T09:11:46;16.95;;;5.03;;
3941;SDS011;1985;48.592;8.850;2023-06-22T09:14:12;23.23;;;6.05;;
3941;SDS011;1985;48.592;8.850;2023-06-22T09:16:37;15.40;;;5.03;;
3941;SDS011;1985;48.592;8.850;2023-06-22T09:19:03;15.27;;;5.70;;
3941;SDS011;1985;48.592;8.850;2023-06-22T09:21:29;16.07;;;5.57;;
3941;SDS011;1985;48.592;8.850;2023-06-22T09:23:55;19.47;;;5.43;;
3941;SDS011;1985;48.592;8.850;2023-06-22T09:26:20;12.60;;;5.20;;
3941;SDS011;1985;48.592;8.850;2023-06-22T09:28:48;13.85;;;5.60;;
3941;SDS011;1985;48.592;8.850;2023-06-22T09:31:14;18.20;;;5.22;;
3941;SDS011;1985;48.592;8.850;2023-06-22T09:33:41;18.00;;;5.55;;
3941;SDS011;1985;48.592;8.850;2023-06-22T09:36:07;19.35;;;5.55;;
3941;SDS011;1985;48.592;8.850;2023-06-22T09:38:36;13.30;;;5.00;;
3941;SDS011;1985;48.592;8.850;2023-06-22T09:41:05;16.10;;;4.50;;
3941;SDS011;1985;48.592;8.850;2023-06-22T09:43:31;15.17;;;4.83;;
3941;SDS011;1985;48.592;8.850;2023-06-22T09:46:00;16.35;;;5.65;;
3941;SDS011;1985;48.592;8.850;2023-06-22T09:48:27;16.70;;;4.80;;
3941;SDS011;1985;48.592;8.850;2023-06-22T09:50:53;13.67;;;4.73;;
3941;SDS011;1985;48.592;8.850;2023-06-22T09:53:19;17.30;;;4.80;;
3941;SDS011;1985;48.592;8.850;2023-06-22T09:55:44;15.97;;;5.07;;
3941;SDS011;1985;48.592;8.850;2023-06-22T09:58:10;16.10;;;4.57;;
3941;SDS011;1985;48.592;8.850;2023-06-22T10:00:35;17.93;;;4.80;;
3941;SDS011;1985;48.592;8.850;2023-06-22T10:03:01;18.57;;;4.93;;
3941;SDS011;1985;48.592;8.850;2023-06-22T10:05:27;18.43;;;4.80;;
3941;SDS011;1985;48.592;8.850;2023-06-22T10:07:52;15.70;;;4.80;;
3941;SDS011;1985;48.592;8.850;2023-06-22T10:10:18;13.93;;;4.80;;
3941;SDS011;1985;48.592;8.850;2023-06-22T10:12:45;14.35;;;5.35;;
3941;SDS011;1985;48.592;8.850;2023-06-22T10:15:13;17.02;;;5.30;;
3941;SDS011;1985;48.592;8.850;2023-06-22T10:17:39;16.63;;;4.60;;
3941;SDS011;1985;48.592;8.850;2023-06-22T10:20:05;13.50;;;4.90;;
3941;SDS011;1985;48.592;8.850;2023-06-22T10:22:38;15.40;;;4.97;;
3941;SDS011;1985;48.592;8.850;2023-06-22T10:25:08;16.67;;;5.45;;
3941;SDS011;1985;48.592;8.850;2023-06-22T10:27:35;13.60;;;4.70;;
3941;SDS011;1985;48.592;8.850;2023-06-22T10:30:00;12.20;;;4.40;;
3941;SDS011;1985;48.592;8.850;2023-06-22T10:32:26;13.68;;;5.00;;
3941;SDS011;1985;48.592;8.850;2023-06-22T10:34:53;18.58;;;4.95;;
3941;SDS011;1985;48.592;8.850;2023-06-22T10:37:19;21.45;;;5.85;;
3941;SDS011;1985;48.592;8.850;2023-06-22T10:39:45;14.77;;;5.20;;
3941;SDS011;1985;48.592;8.850;2023-06-22T10:42:11;19.25;;;5.20;;
3941;SDS011;1985;48.592;8.850;2023-06-22T10:44:37;16.02;;;4.90;;
3941;SDS011;1985;48.592;8.850;2023-06-22T10:47:04;19.17;;;4.60;;
3941;SDS011;1985;48.592;8.850;2023-06-22T10:49:29;13.88;;;5.00;;
3941;SDS011;1985;48.592;8.850;2023-06-22T10:51:55;13.88;;;4.72;;
3941;SDS011;1985;48.592;8.850;2023-06-22T10:54:21;16.92;;;5.18;;
3941;SDS011;1985;48.592;8.850;2023-06-22T10:56:46;12.33;;;4.73;;
3941;SDS011;1985;48.592;8.850;2023-06-22T10:59:12;13.23;;;4.70;;
3941;SDS011;1985;48.592;8.850;2023-06-22T11:01:38;12.87;;;5.00;;
3941;SDS011;1985;48.592;8.850;2023-06-22T11:04:03;15.90;;;4.70;;
3941;SDS011;1985;48.592;8.850;2023-06-22T11:06:29;15.10;;;4.97;;
3941;SDS011;1985;48.592;8.850;2023-06-22T11:08:55;19.33;;;4.87;;
3941;SDS011;1985;48.592;8.850;2023-06-22T11:11:20;15.10;;;4.70;;
3941;SDS011;1985;48.592;8.850;2023-06-22T11:13:46;17.03;;;4.90;;
3941;SDS011;1985;48.592;8.850;2023-06-22T11:16:11;17.23;;;5.30;;
3941;SDS011;1985;48.592;8.850;2023-06-22T11:18:37;18.60;;;4.35;;
3941;SDS011;1985;48.592;8.850;2023-06-22T11:21:03;15.90;;;4.93;;
3941;SDS011;1985;48.592;8.850;2023-06-22T11:23:28;14.20;;;4.70;;
3941;SDS011;1985;48.592;8.850;2023-06-22T11:25:54;16.40;;;4.40;;
3941;SDS011;1985;48.592;8.850;2023-06-22T11:28:20;16.70;;;5.40;;
3941;SDS011;1985;48.592;8.850;2023-06-22T11:30:46;14.95;;;4.53;;
3941;SDS011;1985;48.592;8.850;2023-06-22T11:33:11;13.60;;;4.70;;
3941;SDS011;1985;48.592;8.850;2023-06-22T11:35:37;17.93;;;4.80;;
3941;SDS011;1985;48.592;8.850;2023-06-22T11:38:02;13.33;;;4.73;;
3941;SDS011;1985;48.592;8.850;2023-06-22T11:40:29;16.10;;;4.60;;
3941;SDS011;1985;48.592;8.850;2023-06-22T11:42:55;19.42;;;4.78;;
3941;SDS011;1985;48.592;8.850;2023-06-22T11:45:21;16.13;;;4.80;;
3941;SDS011;1985;48.592;8.850;2023-06-22T11:47:46;16.60;;;4.50;;
3941;SDS011;1985;48.592;8.850;2023-06-22T11:50:12;17.47;;;5.63;;
3941;SDS011;1985;48.592;8.850;2023-06-22T11:52:38;17.80;;;5.68;;
3941;SDS011;1985;48.592;8.850;2023-06-22T11:55:04;17.58;;;4.57;;
3941;SDS011;1985;48.592;8.850;2023-06-22T11:57:35;15.80;;;4.70;;
3941;SDS011;1985;48.592;8.850;2023-06-22T12:00:01;15.70;;;5.20;;
3941;SDS011;1985;48.592;8.850;2023-06-22T12:02:41;13.80;;;5.38;;
3941;SDS011;1985;48.592;8.850;2023-06-22T12:05:06;14.10;;;4.70;;
3941;SDS011;1985;48.592;8.850;2023-06-22T12:07:33;13.50;;;5.00;;
3941;SDS011;1985;48.592;8.850;2023-06-22T12:09:58;13.35;;;4.32;;
3941;SDS011;1985;48.592;8.850;2023-06-22T12:12:24;16.42;;;5.47;;
3941;SDS011;1985;48.592;8.850;2023-06-22T12:14:50;13.85;;;4.88;;
3941;SDS011;1985;48.592;8.850;2023-06-22T12:17:15;16.40;;;5.10;;
3941;SDS011;1985;48.592;8.850;2023-06-22T12:19:41;15.37;;;4.90;;
3941;SDS011;1985;48.592;8.850;2023-06-22T12:22:06;14.37;;;4.53;;
3941;SDS011;1985;48.592;8.850;2023-06-22T12:24:32;13.83;;;4.77;;
3941;SDS011;1985;48.592;8.850;2023-06-22T12:26:58;16.83;;;5.20;;
3941;SDS011;1985;48.592;8.850;2023-06-22T12:29:23;19.63;;;5.13;;
3941;SDS011;1985;48.592;8.850;2023-06-22T12:31:49;15.00;;;4.30;;
3941;SDS011;1985;48.592;8.850;2023-06-22T12:34:14;13.20;;;4.80;;
3941;SDS011;1985;48.592;8.850;2023-06-22T12:36:40;15.07;;;4.50;;
3941;SDS011;1985;48.592;8.850;2023-06-22T12:39:06;15.25;;;5.50;;
3941;SDS011;1985;48.592;8.850;2023-06-22T12:41:31;13.00;;;4.20;;
3941;SDS011;1985;48.592;8.850;2023-06-22T12:43:57;17.17;;;4.70;;
3941;SDS011;1985;48.592;8.850;2023-06-22T12:46:22;16.80;;;4.80;;
3941;SDS011;1985;48.592;8.850;2023-06-22T12:48:48;15.60;;;4.87;;
3941;SDS011;1985;48.592;8.850;2023-06-22T12:51:19;17.57;;;4.80;;
3941;SDS011;1985;48.592;8.850;2023-06-22T12:53:47;16.63;;;5.13;;
3941;SDS011;1985;48.592;8.850;2023-06-22T12:56:12;18.07;;;5.23;;
3941;SDS011;1985;48.592;8.850;2023-06-22T12:58:38;13.67;;;5.00;;
3941;SDS011;1985;48.592;8.850;2023-06-22T13:01:04;15.87;;;5.13;;
3941;SDS011;1985;48.592;8.850;2023-06-22T13:03:29;14.57;;;5.07;;
3941;SDS011;1985;48.592;8.850;2023-06-22T13:05:55;14.33;;;4.70;;
3941;SDS011;1985;48.592;8.850;2023-06-22T13:08:20;15.18;;;5.15;;
3941;SDS011;1985;48.592;8.850;2023-06-22T13:10:46;16.70;;;4.93;;
3941;SDS011;1985;48.592;8.850;2023-06-22T13:13:12;15.05;;;5.18;;
3941;SDS011;1985;48.592;8.850;2023-06-22T13:15:37;18.40;;;5.38;;
3941;SDS011;1985;48.592;8.850;2023-06-22T13:18:03;15.95;;;5.45;;
3941;SDS011;1985;48.592;8.850;2023-06-22T13:20:29;12.83;;;4.73;;
3941;SDS011;1985;48.592;8.850;2023-06-22T13:22:54;17.50;;;5.03;;
3941;SDS011;1985;48.592;8.850;2023-06-22T13:25:21;16.10;;;5.20;;
3941;SDS011;1985;48.592;8.850;2023-06-22T13:27:50;17.88;;;5.28;;
3941;SDS011;1985;48.592;8.850;2023-06-22T13:30:16;21.10;;;5.20;;
3941;SDS011;1985;48.592;8.850;2023-06-22T13:32:41;14.13;;;5.07;;
3941;SDS011;1985;48.592;8.850;2023-06-22T13:35:08;19.25;;;5.38;;
3941;SDS011;1985;48.592;8.850;2023-06-22T13:37:34;13.73;;;4.68;;
3941;SDS011;1985;48.592;8.850;2023-06-22T13:40:00;15.50;;;5.20;;
3941;SDS011;1985;48.592;8.850;2023-06-22T13:42:28;18.50;;;4.80;;
3941;SDS011;1985;48.592;8.850;2023-06-22T13:44:54;19.30;;;5.03;;
3941;SDS011;1985;48.592;8.850;2023-06-22T13:47:19;15.33;;;5.30;;
3941;SDS011;1985;48.592;8.850;2023-06-22T13:49:45;17.07;;;5.40;;
3941;SDS011;1985;48.592;8.850;2023-06-22T13:52:10;14.35;;;5.03;;
3941;SDS011;1985;48.592;8.850;2023-06-22T13:54:37;17.40;;;5.45;;
3941;SDS011;1985;48.592;8.850;2023-06-22T13:57:03;15.75;;;5.30;;
3941;SDS011;1985;48.592;8.850;2023-06-22T13:59:29;17.45;;;5.70;;
3941;SDS011;1985;48.592;8.850;2023-06-22T14:01:55;18.27;;;4.70;;
3941;SDS011;1985;48.592;8.850;2023-06-22T14:04:24;15.03;;;3.50;;
3941;SDS011;1985;48.592;8.850;2023-06-22T14:06:50;15.13;;;3.67;;
3941;SDS011;1985;48.592;8.850;2023-06-22T14:09:15;17.40;;;3.40;;
3941;SDS011;1985;48.592;8.850;2023-06-22T14:11:41;14.67;;;3.93;;
3941;SDS011;1985;48.592;8.850;2023-06-22T14:14:06;15.80;;;4.00;;
3941;SDS011;1985;48.592;8.850;2023-06-22T14:16:32;18.17;;;3.67;;
3941;SDS011;1985;48.592;8.850;2023-06-22T14:18:58;14.38;;;3.30;;
3941;SDS011;1985;48.592;8.850;2023-06-22T14:21:23;15.23;;;3.35;;
3941;SDS011;1985;48.592;8.850;2023-06-22T14:23:50;14.10;;;3.03;;
3941;SDS011;1985;48.592;8.850;2023-06-22T14:26:16;11.10;;;2.70;;
3941;SDS011;1985;48.592;8.850;2023-06-22T14:28:47;13.90;;;3.20;;
3941;SDS011;1985;48.592;8.850;2023-06-22T14:31:15;15.65;;;3.20;;
3941;SDS011;1985;48.592;8.850;2023-06-22T14:33:41;11.10;;;2.83;;
3941;SDS011;1985;48.592;8.850;2023-06-22T14:36:10;13.30;;;3.50;;
3941;SDS011;1985;48.592;8.850;2023-06-22T14:38:35;19.03;;;3.27;;
3941;SDS011;1985;48.592;8.850;2023-06-22T14:41:01;14.40;;;3.30;;
3941;SDS011;1985;48.592;8.850;2023-06-22T14:43:26;14.85;;;3.50;;
3941;SDS011;1985;48.592;8.850;2023-06-22T14:45:52;16.70;;;3.47;;
3941;SDS011;1985;48.592;8.850;2023-06-22T14:48:18;16.02;;;3.38;;
3941;SDS011;1985;48.592;8.850;2023-06-22T14:50:43;18.20;;;3.38;;
3941;SDS011;1985;48.592;8.850;2023-06-22T14:53:09;17.30;;;3.30;;
3941;SDS011;1985;48.592;8.850;2023-06-22T14:55:35;11.63;;;3.03;;
3941;SDS011;1985;48.592;8.850;2023-06-22T14:58:00;13.20;;;3.10;;
3941;SDS011;1985;48.592;8.850;2023-06-22T15:00:26;15.23;;;3.20;;
3941;SDS011;1985;48.592;8.850;2023-06-22T15:02:51;19.50;;;3.88;;
3941;SDS011;1985;48.592;8.850;2023-06-22T15:05:17;18.90;;;3.60;;